Terminal Aerodrome Forecast
Issued by NWS Duluth, MN

Home | Current Version | Previous Version | Text Only | Print | Product List | Glossary On
Versions: 1 2 3 4 5 6 7 8 9 10 11 12 13 14 15 16 17 18
081
FTUS43 KDLH 250538
TAFINL
TAF
KINL 250538Z 2506/2606 05007KT P6SM -RA OVC005
     FM250800 03007KT P6SM VCSH OVC007
     FM251100 01008KT P6SM OVC008
     FM252200 02010KT P6SM OVC010
     FM260000 03011G23KT P6SM OVC008=

USA.gov is the U.S. government's official web portal to all federal, state and local government web resources and services.